sensor_id;sensor_type;location;lat;lon;timestamp;P1;durP1;ratioP1;P2;durP2;ratioP2
25609;SDS011;13479;49.044;8.716;2023-09-08T04:02:26;7.45;;;5.47;;
25609;SDS011;13479;49.044;8.716;2023-09-08T04:04:51;8.68;;;5.80;;
25609;SDS011;13479;49.044;8.716;2023-09-08T04:07:16;10.65;;;5.82;;
25609;SDS011;13479;49.044;8.716;2023-09-08T04:09:41;8.50;;;5.93;;
25609;SDS011;13479;49.044;8.716;2023-09-08T04:12:07;8.95;;;6.25;;
25609;SDS011;13479;49.044;8.716;2023-09-08T04:14:34;8.93;;;5.88;;
25609;SDS011;13479;49.044;8.716;2023-09-08T04:16:59;9.68;;;5.90;;
25609;SDS011;13479;49.044;8.716;2023-09-08T04:19:25;11.43;;;6.30;;
25609;SDS011;13479;49.044;8.716;2023-09-08T04:21:51;8.10;;;4.88;;
25609;SDS011;13479;49.044;8.716;2023-09-08T04:24:16;11.43;;;5.60;;
25609;SDS011;13479;49.044;8.716;2023-09-08T04:26:41;11.43;;;5.68;;
25609;SDS011;13479;49.044;8.716;2023-09-08T04:29:06;10.98;;;6.15;;
25609;SDS011;13479;49.044;8.716;2023-09-08T04:31:32;10.13;;;5.88;;
25609;SDS011;13479;49.044;8.716;2023-09-08T04:33:57;8.82;;;5.88;;
25609;SDS011;13479;49.044;8.716;2023-09-08T04:36:22;7.85;;;5.38;;
25609;SDS011;13479;49.044;8.716;2023-09-08T04:38:48;7.72;;;6.18;;
25609;SDS011;13479;49.044;8.716;2023-09-08T04:41:13;8.98;;;6.03;;
25609;SDS011;13479;49.044;8.716;2023-09-08T04:43:38;9.63;;;6.55;;
25609;SDS011;13479;49.044;8.716;2023-09-08T04:46:04;9.55;;;6.43;;
25609;SDS011;13479;49.044;8.716;2023-09-08T04:48:29;10.15;;;6.60;;
25609;SDS011;13479;49.044;8.716;2023-09-08T04:50:56;10.70;;;6.57;;
25609;SDS011;13479;49.044;8.716;2023-09-08T04:53:21;12.20;;;6.95;;
25609;SDS011;13479;49.044;8.716;2023-09-08T04:55:47;10.75;;;6.57;;
25609;SDS011;13479;49.044;8.716;2023-09-08T04:58:12;9.88;;;7.15;;
25609;SDS011;13479;49.044;8.716;2023-09-08T05:00:37;11.35;;;7.40;;
25609;SDS011;13479;49.044;8.716;2023-09-08T05:03:03;10.50;;;7.38;;
25609;SDS011;13479;49.044;8.716;2023-09-08T05:05:29;12.57;;;7.88;;
25609;SDS011;13479;49.044;8.716;2023-09-08T05:07:54;10.57;;;7.40;;
25609;SDS011;13479;49.044;8.716;2023-09-08T05:10:21;10.27;;;7.28;;
25609;SDS011;13479;49.044;8.716;2023-09-08T05:12:47;12.65;;;7.63;;
25609;SDS011;13479;49.044;8.716;2023-09-08T05:15:12;11.00;;;7.13;;
25609;SDS011;13479;49.044;8.716;2023-09-08T05:17:40;11.27;;;7.32;;
25609;SDS011;13479;49.044;8.716;2023-09-08T05:20:06;12.93;;;7.88;;
25609;SDS011;13479;49.044;8.716;2023-09-08T05:22:31;10.95;;;7.45;;
25609;SDS011;13479;49.044;8.716;2023-09-08T05:24:57;11.38;;;6.70;;
25609;SDS011;13479;49.044;8.716;2023-09-08T05:27:22;10.50;;;6.95;;
25609;SDS011;13479;49.044;8.716;2023-09-08T05:29:47;1999.90;;;999.90;;
25609;SDS011;13479;49.044;8.716;2023-09-08T05:32:12;1999.90;;;999.90;;
25609;SDS011;13479;49.044;8.716;2023-09-08T05:34:38;1999.90;;;999.90;;
25609;SDS011;13479;49.044;8.716;2023-09-08T05:37:04;1999.90;;;999.90;;
25609;SDS011;13479;49.044;8.716;2023-09-08T05:39:29;1999.90;;;999.90;;
25609;SDS011;13479;49.044;8.716;2023-09-08T05:41:54;1999.90;;;999.90;;
25609;SDS011;13479;49.044;8.716;2023-09-08T05:44:19;1999.90;;;999.90;;
25609;SDS011;13479;49.044;8.716;2023-09-08T05:46:45;1999.90;;;999.90;;
25609;SDS011;13479;49.044;8.716;2023-09-08T05:49:10;1999.90;;;999.90;;
25609;SDS011;13479;49.044;8.716;2023-09-08T05:51:35;1999.90;;;999.90;;
25609;SDS011;13479;49.044;8.716;2023-09-08T05:54:01;1999.90;;;999.90;;
25609;SDS011;13479;49.044;8.716;2023-09-08T05:56:29;1999.90;;;999.90;;
25609;SDS011;13479;49.044;8.716;2023-09-08T05:58:55;18.95;;;17.33;;
25609;SDS011;13479;49.044;8.716;2023-09-08T06:01:21;8.50;;;6.95;;
25609;SDS011;13479;49.044;8.716;2023-09-08T06:03:46;7.57;;;5.88;;
25609;SDS011;13479;49.044;8.716;2023-09-08T06:06:11;12.95;;;5.22;;
25609;SDS011;13479;49.044;8.716;2023-09-08T06:08:36;6.82;;;5.32;;
25609;SDS011;13479;49.044;8.716;2023-09-08T06:11:02;12.95;;;5.40;;
25609;SDS011;13479;49.044;8.716;2023-09-08T06:13:27;6.13;;;4.50;;
25609;SDS011;13479;49.044;8.716;2023-09-08T06:15:52;6.10;;;4.68;;
25609;SDS011;13479;49.044;8.716;2023-09-08T06:18:17;7.60;;;4.70;;
25609;SDS011;13479;49.044;8.716;2023-09-08T06:20:43;5.88;;;4.97;;
25609;SDS011;13479;49.044;8.716;2023-09-08T06:23:12;7.55;;;5.20;;
25609;SDS011;13479;49.044;8.716;2023-09-08T06:25:37;8.35;;;4.38;;
25609;SDS011;13479;49.044;8.716;2023-09-08T06:28:03;9.98;;;4.28;;
25609;SDS011;13479;49.044;8.716;2023-09-08T06:30:28;9.80;;;4.82;;
25609;SDS011;13479;49.044;8.716;2023-09-08T06:32:54;10.00;;;4.60;;
25609;SDS011;13479;49.044;8.716;2023-09-08T06:35:19;5.80;;;4.32;;
25609;SDS011;13479;49.044;8.716;2023-09-08T06:37:44;7.57;;;4.80;;
25609;SDS011;13479;49.044;8.716;2023-09-08T06:40:09;8.23;;;4.55;;
25609;SDS011;13479;49.044;8.716;2023-09-08T06:42:35;6.78;;;4.50;;
25609;SDS011;13479;49.044;8.716;2023-09-08T06:45:01;5.65;;;4.00;;
25609;SDS011;13479;49.044;8.716;2023-09-08T06:47:26;7.50;;;4.15;;
25609;SDS011;13479;49.044;8.716;2023-09-08T06:49:51;6.50;;;4.13;;
25609;SDS011;13479;49.044;8.716;2023-09-08T06:52:17;9.88;;;4.55;;
25609;SDS011;13479;49.044;8.716;2023-09-08T06:54:42;9.73;;;3.80;;
25609;SDS011;13479;49.044;8.716;2023-09-08T06:57:10;4.85;;;3.80;;
25609;SDS011;13479;49.044;8.716;2023-09-08T06:59:35;6.22;;;4.25;;
25609;SDS011;13479;49.044;8.716;2023-09-08T07:02:00;6.50;;;4.07;;
25609;SDS011;13479;49.044;8.716;2023-09-08T07:04:27;7.50;;;4.22;;
25609;SDS011;13479;49.044;8.716;2023-09-08T07:06:52;8.07;;;4.07;;
25609;SDS011;13479;49.044;8.716;2023-09-08T07:09:19;7.15;;;4.43;;
25609;SDS011;13479;49.044;8.716;2023-09-08T07:11:45;8.48;;;4.20;;
25609;SDS011;13479;49.044;8.716;2023-09-08T07:14:10;7.20;;;4.28;;
25609;SDS011;13479;49.044;8.716;2023-09-08T07:16:35;6.55;;;4.28;;
25609;SDS011;13479;49.044;8.716;2023-09-08T07:19:01;7.65;;;3.80;;
25609;SDS011;13479;49.044;8.716;2023-09-08T07:21:26;7.25;;;3.97;;
25609;SDS011;13479;49.044;8.716;2023-09-08T07:23:51;7.53;;;4.22;;
25609;SDS011;13479;49.044;8.716;2023-09-08T07:26:17;6.07;;;3.92;;
25609;SDS011;13479;49.044;8.716;2023-09-08T07:28:42;9.15;;;4.05;;
25609;SDS011;13479;49.044;8.716;2023-09-08T07:31:08;7.13;;;3.83;;
25609;SDS011;13479;49.044;8.716;2023-09-08T07:33:34;6.38;;;4.00;;
25609;SDS011;13479;49.044;8.716;2023-09-08T07:36:03;6.60;;;4.00;;
25609;SDS011;13479;49.044;8.716;2023-09-08T07:38:29;6.65;;;4.07;;
25609;SDS011;13479;49.044;8.716;2023-09-08T07:40:54;6.32;;;3.65;;
25609;SDS011;13479;49.044;8.716;2023-09-08T07:43:20;8.40;;;4.15;;
25609;SDS011;13479;49.044;8.716;2023-09-08T07:45:45;5.85;;;4.07;;
25609;SDS011;13479;49.044;8.716;2023-09-08T07:48:10;6.50;;;3.92;;
25609;SDS011;13479;49.044;8.716;2023-09-08T07:50:35;5.30;;;3.88;;
25609;SDS011;13479;49.044;8.716;2023-09-08T07:53:01;5.63;;;3.72;;
25609;SDS011;13479;49.044;8.716;2023-09-08T07:55:26;6.00;;;3.63;;
25609;SDS011;13479;49.044;8.716;2023-09-08T07:57:55;7.82;;;3.80;;
25609;SDS011;13479;49.044;8.716;2023-09-08T08:00:20;4.70;;;3.83;;
25609;SDS011;13479;49.044;8.716;2023-09-08T08:02:47;6.72;;;4.13;;
25609;SDS011;13479;49.044;8.716;2023-09-08T08:05:14;5.25;;;3.30;;
25609;SDS011;13479;49.044;8.716;2023-09-08T08:07:39;7.10;;;3.40;;
25609;SDS011;13479;49.044;8.716;2023-09-08T08:10:06;5.53;;;3.40;;
25609;SDS011;13479;49.044;8.716;2023-09-08T08:12:31;5.53;;;3.38;;
25609;SDS011;13479;49.044;8.716;2023-09-08T08:14:57;7.43;;;3.80;;
25609;SDS011;13479;49.044;8.716;2023-09-08T08:17:23;10.20;;;3.80;;
25609;SDS011;13479;49.044;8.716;2023-09-08T08:19:49;6.95;;;3.30;;
25609;SDS011;13479;49.044;8.716;2023-09-08T08:22:14;4.57;;;3.75;;
25609;SDS011;13479;49.044;8.716;2023-09-08T08:24:39;5.78;;;4.03;;
25609;SDS011;13479;49.044;8.716;2023-09-08T08:27:04;4.72;;;3.30;;
25609;SDS011;13479;49.044;8.716;2023-09-08T08:29:30;7.43;;;3.05;;
25609;SDS011;13479;49.044;8.716;2023-09-08T08:31:56;5.70;;;3.95;;
25609;SDS011;13479;49.044;8.716;2023-09-08T08:34:21;4.70;;;4.00;;
25609;SDS011;13479;49.044;8.716;2023-09-08T08:36:46;5.78;;;3.50;;
25609;SDS011;13479;49.044;8.716;2023-09-08T08:39:11;4.35;;;3.45;;
25609;SDS011;13479;49.044;8.716;2023-09-08T08:41:37;4.40;;;3.50;;
25609;SDS011;13479;49.044;8.716;2023-09-08T08:44:07;6.22;;;3.92;;
25609;SDS011;13479;49.044;8.716;2023-09-08T08:46:33;4.80;;;3.78;;
25609;SDS011;13479;49.044;8.716;2023-09-08T08:49:01;6.53;;;4.15;;
25609;SDS011;13479;49.044;8.716;2023-09-08T08:51:28;6.57;;;3.45;;
25609;SDS011;13479;49.044;8.716;2023-09-08T08:53:55;5.82;;;3.33;;
25609;SDS011;13479;49.044;8.716;2023-09-08T08:56:21;7.53;;;3.92;;
25609;SDS011;13479;49.044;8.716;2023-09-08T08:58:47;6.93;;;3.47;;
25609;SDS011;13479;49.044;8.716;2023-09-08T09:01:13;6.43;;;4.28;;
25609;SDS011;13479;49.044;8.716;2023-09-08T09:03:45;5.90;;;4.40;;
25609;SDS011;13479;49.044;8.716;2023-09-08T09:06:14;4.05;;;3.65;;
25609;SDS011;13479;49.044;8.716;2023-09-08T09:08:40;4.72;;;4.00;;
25609;SDS011;13479;49.044;8.716;2023-09-08T09:11:08;9.60;;;4.15;;
25609;SDS011;13479;49.044;8.716;2023-09-08T09:13:33;6.47;;;4.00;;
25609;SDS011;13479;49.044;8.716;2023-09-08T09:15:59;5.95;;;4.20;;
25609;SDS011;13479;49.044;8.716;2023-09-08T09:18:25;6.53;;;3.72;;
25609;SDS011;13479;49.044;8.716;2023-09-08T09:20:54;6.57;;;3.88;;
25609;SDS011;13479;49.044;8.716;2023-09-08T09:23:30;10.23;;;3.92;;
25609;SDS011;13479;49.044;8.716;2023-09-08T09:25:57;6.70;;;4.20;;
25609;SDS011;13479;49.044;8.716;2023-09-08T09:28:23;4.78;;;3.70;;
25609;SDS011;13479;49.044;8.716;2023-09-08T09:30:50;8.45;;;3.80;;
25609;SDS011;13479;49.044;8.716;2023-09-08T09:33:17;5.15;;;3.67;;
25609;SDS011;13479;49.044;8.716;2023-09-08T09:36:00;6.40;;;4.13;;
25609;SDS011;13479;49.044;8.716;2023-09-08T09:38:26;9.05;;;4.40;;
25609;SDS011;13479;49.044;8.716;2023-09-08T09:40:52;9.23;;;4.45;;
25609;SDS011;13479;49.044;8.716;2023-09-08T09:43:19;6.45;;;3.88;;
25609;SDS011;13479;49.044;8.716;2023-09-08T09:45:46;6.32;;;3.75;;
25609;SDS011;13479;49.044;8.716;2023-09-08T09:48:11;7.40;;;3.90;;
25609;SDS011;13479;49.044;8.716;2023-09-08T09:50:38;6.68;;;4.20;;
25609;SDS011;13479;49.044;8.716;2023-09-08T09:53:08;7.60;;;4.43;;
25609;SDS011;13479;49.044;8.716;2023-09-08T09:55:36;6.15;;;3.78;;
25609;SDS011;13479;49.044;8.716;2023-09-08T09:58:03;10.60;;;4.07;;
25609;SDS011;13479;49.044;8.716;2023-09-08T10:00:30;6.43;;;4.18;;
25609;SDS011;13479;49.044;8.716;2023-09-08T10:02:58;10.15;;;4.97;;
25609;SDS011;13479;49.044;8.716;2023-09-08T10:05:24;4.90;;;3.88;;
25609;SDS011;13479;49.044;8.716;2023-09-08T10:07:50;6.15;;;4.40;;
25609;SDS011;13479;49.044;8.716;2023-09-08T10:10:16;7.63;;;3.88;;
25609;SDS011;13479;49.044;8.716;2023-09-08T10:12:46;8.40;;;4.25;;
25609;SDS011;13479;49.044;8.716;2023-09-08T10:15:18;5.45;;;3.83;;
25609;SDS011;13479;49.044;8.716;2023-09-08T10:17:46;7.80;;;3.90;;
25609;SDS011;13479;49.044;8.716;2023-09-08T10:20:17;5.55;;;3.80;;
25609;SDS011;13479;49.044;8.716;2023-09-08T10:22:46;5.25;;;3.85;;
25609;SDS011;13479;49.044;8.716;2023-09-08T10:25:14;5.10;;;3.50;;
25609;SDS011;13479;49.044;8.716;2023-09-08T10:27:44;5.03;;;3.60;;
25609;SDS011;13479;49.044;8.716;2023-09-08T10:30:10;4.10;;;3.30;;
25609;SDS011;13479;49.044;8.716;2023-09-08T10:32:36;6.60;;;4.03;;
25609;SDS011;13479;49.044;8.716;2023-09-08T10:35:03;4.28;;;3.78;;
25609;SDS011;13479;49.044;8.716;2023-09-08T10:37:29;5.80;;;3.90;;
25609;SDS011;13479;49.044;8.716;2023-09-08T10:39:55;5.55;;;3.67;;
25609;SDS011;13479;49.044;8.716;2023-09-08T10:42:21;4.65;;;3.50;;
25609;SDS011;13479;49.044;8.716;2023-09-08T10:47:19;4.13;;;3.67;;
25609;SDS011;13479;49.044;8.716;2023-09-08T10:49:46;6.78;;;3.72;;
25609;SDS011;13479;49.044;8.716;2023-09-08T10:52:12;8.13;;;3.90;;
25609;SDS011;13479;49.044;8.716;2023-09-08T10:54:41;4.90;;;3.65;;
25609;SDS011;13479;49.044;8.716;2023-09-08T10:57:12;6.03;;;3.72;;
25609;SDS011;13479;49.044;8.716;2023-09-08T10:59:39;5.05;;;3.83;;
25609;SDS011;13479;49.044;8.716;2023-09-08T11:02:13;6.95;;;4.18;;
25609;SDS011;13479;49.044;8.716;2023-09-08T11:04:57;6.28;;;4.10;;
25609;SDS011;13479;49.044;8.716;2023-09-08T11:07:24;7.65;;;3.58;;
25609;SDS011;13479;49.044;8.716;2023-09-08T11:09:49;4.90;;;3.58;;
25609;SDS011;13479;49.044;8.716;2023-09-08T11:12:15;7.55;;;3.70;;
25609;SDS011;13479;49.044;8.716;2023-09-08T11:14:42;8.88;;;3.75;;
25609;SDS011;13479;49.044;8.716;2023-09-08T11:17:08;5.00;;;3.78;;
25609;SDS011;13479;49.044;8.716;2023-09-08T11:19:43;5.63;;;4.00;;
25609;SDS011;13479;49.044;8.716;2023-09-08T11:22:15;7.55;;;4.45;;
25609;SDS011;13479;49.044;8.716;2023-09-08T11:24:41;6.45;;;4.20;;
25609;SDS011;13479;49.044;8.716;2023-09-08T11:27:07;4.97;;;3.92;;
25609;SDS011;13479;49.044;8.716;2023-09-08T11:29:33;5.18;;;4.07;;
25609;SDS011;13479;49.044;8.716;2023-09-08T11:31:58;7.15;;;4.00;;
25609;SDS011;13479;49.044;8.716;2023-09-08T11:34:24;7.25;;;4.10;;
25609;SDS011;13479;49.044;8.716;2023-09-08T11:36:49;5.65;;;4.15;;
25609;SDS011;13479;49.044;8.716;2023-09-08T11:39:15;6.38;;;4.57;;
25609;SDS011;13479;49.044;8.716;2023-09-08T11:41:40;5.57;;;4.07;;
25609;SDS011;13479;49.044;8.716;2023-09-08T11:44:06;7.68;;;3.80;;
25609;SDS011;13479;49.044;8.716;2023-09-08T11:46:31;7.47;;;4.13;;
25609;SDS011;13479;49.044;8.716;2023-09-08T11:48:57;9.02;;;4.55;;
25609;SDS011;13479;49.044;8.716;2023-09-08T11:51:23;7.18;;;4.07;;
25609;SDS011;13479;49.044;8.716;2023-09-08T11:53:49;8.85;;;4.38;;
25609;SDS011;13479;49.044;8.716;2023-09-08T11:56:14;5.75;;;3.92;;
25609;SDS011;13479;49.044;8.716;2023-09-08T11:58:40;6.05;;;4.40;;
25609;SDS011;13479;49.044;8.716;2023-09-08T12:01:07;5.75;;;4.05;;
25609;SDS011;13479;49.044;8.716;2023-09-08T12:03:33;5.35;;;4.40;;
25609;SDS011;13479;49.044;8.716;2023-09-08T12:05:58;8.43;;;4.25;;
25609;SDS011;13479;49.044;8.716;2023-09-08T12:08:25;7.10;;;4.60;;
25609;SDS011;13479;49.044;8.716;2023-09-08T12:10:53;6.85;;;4.30;;
25609;SDS011;13479;49.044;8.716;2023-09-08T12:13:22;6.25;;;4.15;;
25609;SDS011;13479;49.044;8.716;2023-09-08T12:15:48;7.00;;;4.47;;
25609;SDS011;13479;49.044;8.716;2023-09-08T12:18:13;6.15;;;4.30;;
25609;SDS011;13479;49.044;8.716;2023-09-08T12:20:42;7.75;;;4.07;;
25609;SDS011;13479;49.044;8.716;2023-09-08T12:23:18;6.88;;;4.30;;
25609;SDS011;13479;49.044;8.716;2023-09-08T12:25:45;8.40;;;4.50;;
25609;SDS011;13479;49.044;8.716;2023-09-08T12:28:11;6.10;;;4.30;;
25609;SDS011;13479;49.044;8.716;2023-09-08T12:30:36;7.82;;;4.45;;
25609;SDS011;13479;49.044;8.716;2023-09-08T12:33:02;6.13;;;4.18;;
25609;SDS011;13479;49.044;8.716;2023-09-08T12:35:27;5.90;;;3.95;;
25609;SDS011;13479;49.044;8.716;2023-09-08T12:38:01;5.90;;;4.00;;
25609;SDS011;13479;49.044;8.716;2023-09-08T12:40:27;7.40;;;4.10;;
25609;SDS011;13479;49.044;8.716;2023-09-08T12:42:54;8.13;;;3.75;;
25609;SDS011;13479;49.044;8.716;2023-09-08T12:45:20;9.10;;;4.25;;
25609;SDS011;13479;49.044;8.716;2023-09-08T12:47:47;6.63;;;4.28;;
25609;SDS011;13479;49.044;8.716;2023-09-08T12:50:12;6.38;;;4.65;;
25609;SDS011;13479;49.044;8.716;2023-09-08T12:52:38;7.07;;;4.05;;
25609;SDS011;13479;49.044;8.716;2023-09-08T12:55:04;6.50;;;4.13;;
25609;SDS011;13479;49.044;8.716;2023-09-08T12:57:29;7.75;;;4.25;;
25609;SDS011;13479;49.044;8.716;2023-09-08T12:59:55;6.78;;;4.10;;
25609;SDS011;13479;49.044;8.716;2023-09-08T13:02:20;6.18;;;4.20;;
25609;SDS011;13479;49.044;8.716;2023-09-08T13:04:45;7.88;;;3.95;;
25609;SDS011;13479;49.044;8.716;2023-09-08T13:07:14;9.10;;;4.18;;
25609;SDS011;13479;49.044;8.716;2023-09-08T13:09:39;8.18;;;4.30;;
25609;SDS011;13479;49.044;8.716;2023-09-08T13:12:05;6.72;;;3.95;;
25609;SDS011;13479;49.044;8.716;2023-09-08T13:14:30;5.15;;;4.05;;
25609;SDS011;13479;49.044;8.716;2023-09-08T13:16:56;5.68;;;3.88;;
25609;SDS011;13479;49.044;8.716;2023-09-08T13:19:21;6.85;;;4.13;;
25609;SDS011;13479;49.044;8.716;2023-09-08T13:21:46;6.13;;;4.18;;
25609;SDS011;13479;49.044;8.716;2023-09-08T13:24:11;6.05;;;3.65;;
25609;SDS011;13479;49.044;8.716;2023-09-08T13:26:37;9.02;;;3.95;;
25609;SDS011;13479;49.044;8.716;2023-09-08T13:29:02;7.22;;;4.10;;
25609;SDS011;13479;49.044;8.716;2023-09-08T13:31:28;5.70;;;3.65;;
25609;SDS011;13479;49.044;8.716;2023-09-08T13:33:53;4.95;;;3.80;;
25609;SDS011;13479;49.044;8.716;2023-09-08T13:36:19;8.27;;;4.20;;
25609;SDS011;13479;49.044;8.716;2023-09-08T13:38:44;8.02;;;4.20;;
25609;SDS011;13479;49.044;8.716;2023-09-08T13:41:09;6.13;;;3.88;;
25609;SDS011;13479;49.044;8.716;2023-09-08T13:43:34;5.72;;;3.85;;
25609;SDS011;13479;49.044;8.716;2023-09-08T13:46:00;8.25;;;4.00;;
25609;SDS011;13479;49.044;8.716;2023-09-08T13:48:25;9.80;;;4.10;;
25609;SDS011;13479;49.044;8.716;2023-09-08T13:50:51;7.45;;;4.18;;
25609;SDS011;13479;49.044;8.716;2023-09-08T13:53:16;9.20;;;4.25;;
25609;SDS011;13479;49.044;8.716;2023-09-08T13:55:42;4.95;;;3.60;;
25609;SDS011;13479;49.044;8.716;2023-09-08T13:58:07;5.47;;;3.97;;
25609;SDS011;13479;49.044;8.716;2023-09-08T14:00:33;6.10;;;3.72;;
25609;SDS011;13479;49.044;8.716;2023-09-08T14:02:58;4.97;;;3.72;;
25609;SDS011;13479;49.044;8.716;2023-09-08T14:05:23;7.85;;;3.63;;
25609;SDS011;13479;49.044;8.716;2023-09-08T14:07:49;5.93;;;3.75;;
25609;SDS011;13479;49.044;8.716;2023-09-08T14:10:14;8.60;;;4.00;;
25609;SDS011;13479;49.044;8.716;2023-09-08T14:12:39;6.75;;;3.55;;
25609;SDS011;13479;49.044;8.716;2023-09-08T14:15:04;8.18;;;4.20;;
25609;SDS011;13479;49.044;8.716;2023-09-08T14:17:30;5.38;;;3.75;;
25609;SDS011;13479;49.044;8.716;2023-09-08T14:19:55;5.18;;;4.00;;
25609;SDS011;13479;49.044;8.716;2023-09-08T14:22:21;8.48;;;3.90;;
25609;SDS011;13479;49.044;8.716;2023-09-08T14:24:46;4.85;;;4.20;;
25609;SDS011;13479;49.044;8.716;2023-09-08T14:27:11;7.25;;;4.03;;
25609;SDS011;13479;49.044;8.716;2023-09-08T14:29:36;7.82;;;3.95;;
25609;SDS011;13479;49.044;8.716;2023-09-08T14:32:02;9.07;;;3.92;;
25609;SDS011;13479;49.044;8.716;2023-09-08T14:34:27;5.88;;;3.83;;
25609;SDS011;13479;49.044;8.716;2023-09-08T14:36:53;6.63;;;3.95;;
25609;SDS011;13479;49.044;8.716;2023-09-08T14:39:18;6.30;;;4.10;;
25609;SDS011;13479;49.044;8.716;2023-09-08T14:41:46;5.88;;;4.05;;
25609;SDS011;13479;49.044;8.716;2023-09-08T14:44:15;6.45;;;3.70;;
25609;SDS011;13479;49.044;8.716;2023-09-08T14:46:40;6.18;;;4.07;;
25609;SDS011;13479;49.044;8.716;2023-09-08T14:49:06;6.40;;;3.83;;
25609;SDS011;13479;49.044;8.716;2023-09-08T14:51:31;7.13;;;3.92;;
25609;SDS011;13479;49.044;8.716;2023-09-08T14:53:56;4.82;;;3.80;;
25609;SDS011;13479;49.044;8.716;2023-09-08T14:56:21;5.43;;;3.95;;
25609;SDS011;13479;49.044;8.716;2023-09-08T14:58:47;7.35;;;3.90;;
25609;SDS011;13479;49.044;8.716;2023-09-08T15:01:12;5.53;;;3.95;;
25609;SDS011;13479;49.044;8.716;2023-09-08T15:03:39;5.82;;;3.42;;
25609;SDS011;13479;49.044;8.716;2023-09-08T15:06:04;6.22;;;4.22;;
25609;SDS011;13479;49.044;8.716;2023-09-08T15:08:30;4.40;;;3.50;;
25609;SDS011;13479;49.044;8.716;2023-09-08T15:10:55;6.35;;;3.60;;
25609;SDS011;13479;49.044;8.716;2023-09-08T15:13:21;5.57;;;3.70;;
25609;SDS011;13479;49.044;8.716;2023-09-08T15:15:46;9.98;;;4.20;;
25609;SDS011;13479;49.044;8.716;2023-09-08T15:18:12;6.20;;;3.80;;
25609;SDS011;13479;49.044;8.716;2023-09-08T15:20:37;6.80;;;3.72;;
25609;SDS011;13479;49.044;8.716;2023-09-08T15:23:05;7.00;;;4.00;;
25609;SDS011;13479;49.044;8.716;2023-09-08T15:25:31;11.20;;;3.90;;
25609;SDS011;13479;49.044;8.716;2023-09-08T15:27:56;9.07;;;3.90;;
25609;SDS011;13479;49.044;8.716;2023-09-08T15:30:22;9.23;;;4.03;;
25609;SDS011;13479;49.044;8.716;2023-09-08T15:32:47;6.90;;;3.80;;
25609;SDS011;13479;49.044;8.716;2023-09-08T15:35:12;6.20;;;3.80;;
25609;SDS011;13479;49.044;8.716;2023-09-08T15:37:37;5.65;;;3.50;;
25609;SDS011;13479;49.044;8.716;2023-09-08T15:40:03;4.63;;;3.13;;
25609;SDS011;13479;49.044;8.716;2023-09-08T15:42:29;6.43;;;3.67;;
25609;SDS011;13479;49.044;8.716;2023-09-08T15:44:54;6.80;;;3.30;;
25609;SDS011;13479;49.044;8.716;2023-09-08T15:47:20;5.32;;;3.50;;
25609;SDS011;13479;49.044;8.716;2023-09-08T15:49:45;9.25;;;3.97;;
25609;SDS011;13479;49.044;8.716;2023-09-08T15:52:10;4.50;;;3.25;;
25609;SDS011;13479;49.044;8.716;2023-09-08T15:54:35;6.38;;;3.70;;
25609;SDS011;13479;49.044;8.716;2023-09-08T15:57:01;5.20;;;3.30;;
25609;SDS011;13479;49.044;8.716;2023-09-08T15:59:28;7.25;;;3.60;;
25609;SDS011;13479;49.044;8.716;2023-09-08T16:01:53;5.15;;;3.63;;
25609;SDS011;13479;49.044;8.716;2023-09-08T16:04:19;6.40;;;3.53;;
25609;SDS011;13479;49.044;8.716;2023-09-08T16:06:44;5.10;;;3.40;;
25609;SDS011;13479;49.044;8.716;2023-09-08T16:09:09;6.10;;;3.50;;
25609;SDS011;13479;49.044;8.716;2023-09-08T16:11:34;5.60;;;3.40;;
25609;SDS011;13479;49.044;8.716;2023-09-08T16:13:59;4.65;;;3.20;;
25609;SDS011;13479;49.044;8.716;2023-09-08T16:16:25;4.75;;;3.33;;
25609;SDS011;13479;49.044;8.716;2023-09-08T16:18:50;4.80;;;3.53;;
25609;SDS011;13479;49.044;8.716;2023-09-08T16:21:15;6.70;;;3.40;;
25609;SDS011;13479;49.044;8.716;2023-09-08T16:23:41;7.80;;;3.58;;
25609;SDS011;13479;49.044;8.716;2023-09-08T16:26:06;4.85;;;3.25;;
25609;SDS011;13479;49.044;8.716;2023-09-08T16:28:31;8.23;;;3.60;;
25609;SDS011;13479;49.044;8.716;2023-09-08T16:31:02;7.10;;;3.50;;
25609;SDS011;13479;49.044;8.716;2023-09-08T16:33:28;6.28;;;3.63;;
25609;SDS011;13479;49.044;8.716;2023-09-08T16:35:54;6.95;;;3.90;;
25609;SDS011;13479;49.044;8.716;2023-09-08T16:38:19;8.80;;;3.60;;
25609;SDS011;13479;49.044;8.716;2023-09-08T16:40:44;4.65;;;3.30;;
25609;SDS011;13479;49.044;8.716;2023-09-08T16:43:10;6.65;;;3.50;;
25609;SDS011;13479;49.044;8.716;2023-09-08T16:45:36;5.80;;;3.60;;
25609;SDS011;13479;49.044;8.716;2023-09-08T16:48:01;8.00;;;3.58;;
25609;SDS011;13479;49.044;8.716;2023-09-08T16:50:26;4.38;;;3.28;;
25609;SDS011;13479;49.044;8.716;2023-09-08T16:52:51;4.90;;;3.45;;
25609;SDS011;13479;49.044;8.716;2023-09-08T16:55:17;5.90;;;3.55;;
25609;SDS011;13479;49.044;8.716;2023-09-08T16:57:42;6.20;;;3.45;;
25609;SDS011;13479;49.044;8.716;2023-09-08T17:00:07;6.35;;;3.30;;
25609;SDS011;13479;49.044;8.716;2023-09-08T17:02:34;11.27;;;3.80;;
25609;SDS011;13479;49.044;8.716;2023-09-08T17:05:00;9.60;;;3.97;;
25609;SDS011;13479;49.044;8.716;2023-09-08T17:07:25;11.18;;;4.40;;
25609;SDS011;13479;49.044;8.716;2023-09-08T17:09:51;8.02;;;3.97;;
25609;SDS011;13479;49.044;8.716;2023-09-08T17:12:17;5.22;;;3.67;;
25609;SDS011;13479;49.044;8.716;2023-09-08T17:14:42;6.40;;;3.70;;
25609;SDS011;13479;49.044;8.716;2023-09-08T17:17:07;8.80;;;3.85;;
25609;SDS011;13479;49.044;8.716;2023-09-08T17:19:33;8.48;;;4.30;;
25609;SDS011;13479;49.044;8.716;2023-09-08T17:21:58;4.97;;;3.50;;
25609;SDS011;13479;49.044;8.716;2023-09-08T17:24:24;4.38;;;3.40;;
25609;SDS011;13479;49.044;8.716;2023-09-08T17:26:51;6.15;;;3.60;;
25609;SDS011;13479;49.044;8.716;2023-09-08T17:29:16;6.15;;;4.15;;
25609;SDS011;13479;49.044;8.716;2023-09-08T17:31:41;7.32;;;4.00;;
25609;SDS011;13479;49.044;8.716;2023-09-08T17:34:06;7.00;;;3.78;;
25609;SDS011;13479;49.044;8.716;2023-09-08T17:36:34;7.13;;;3.30;;
25609;SDS011;13479;49.044;8.716;2023-09-08T17:38:59;6.78;;;3.58;;
25609;SDS011;13479;49.044;8.716;2023-09-08T17:41:25;5.32;;;3.67;;
25609;SDS011;13479;49.044;8.716;2023-09-08T17:43:50;5.07;;;3.80;;
25609;SDS011;13479;49.044;8.716;2023-09-08T17:46:15;6.07;;;3.72;;
25609;SDS011;13479;49.044;8.716;2023-09-08T17:48:41;6.50;;;3.92;;
25609;SDS011;13479;49.044;8.716;2023-09-08T17:51:06;8.30;;;3.78;;
25609;SDS011;13479;49.044;8.716;2023-09-08T17:53:31;6.47;;;3.83;;
25609;SDS011;13479;49.044;8.716;2023-09-08T17:56:00;7.47;;;3.70;;
25609;SDS011;13479;49.044;8.716;2023-09-08T17:58:26;5.03;;;3.70;;
25609;SDS011;13479;49.044;8.716;2023-09-08T18:00:51;8.98;;;4.05;;
25609;SDS011;13479;49.044;8.716;2023-09-08T18:03:17;6.25;;;4.28;;
25609;SDS011;13479;49.044;8.716;2023-09-08T18:05:42;4.15;;;3.53;;
25609;SDS011;13479;49.044;8.716;2023-09-08T18:08:08;7.03;;;3.70;;
25609;SDS011;13479;49.044;8.716;2023-09-08T18:10:33;5.40;;;3.92;;
25609;SDS011;13479;49.044;8.716;2023-09-08T18:12:59;7.88;;;4.20;;
25609;SDS011;13479;49.044;8.716;2023-09-08T18:15:24;6.95;;;3.95;;
25609;SDS011;13479;49.044;8.716;2023-09-08T18:17:49;5.97;;;4.00;;
25609;SDS011;13479;49.044;8.716;2023-09-08T18:20:15;6.03;;;3.53;;
25609;SDS011;13479;49.044;8.716;2023-09-08T18:22:40;8.05;;;4.15;;
25609;SDS011;13479;49.044;8.716;2023-09-08T18:25:05;5.47;;;3.65;;
25609;SDS011;13479;49.044;8.716;2023-09-08T18:27:31;5.60;;;3.90;;
25609;SDS011;13479;49.044;8.716;2023-09-08T18:29:56;5.30;;;4.15;;
25609;SDS011;13479;49.044;8.716;2023-09-08T18:32:21;5.63;;;4.10;;
25609;SDS011;13479;49.044;8.716;2023-09-08T18:34:47;10.20;;;4.93;;
25609;SDS011;13479;49.044;8.716;2023-09-08T18:37:12;7.00;;;4.50;;
25609;SDS011;13479;49.044;8.716;2023-09-08T18:39:37;9.02;;;4.57;;